Map

Track Data

SID SEASON NUMBER BASIN SUBBASIN NAME ISO_TIME NATURE LAT LON WMO_WIND WMO_PRES WMO_AGENCY TRACK_TYPE DIST2LAND LANDFALL IFLAG USA_AGENCY USA_ATCF_ID USA_LAT USA_LON USA_RECORD USA_STATUS USA_WIND USA_PRES USA_SSHS USA_R34_NE USA_R34_SE USA_R34_SW USA_R34_NW USA_R50_NE USA_R50_SE USA_R50_SW USA_R50_NW USA_R64_NE USA_R64_SE USA_R64_SW USA_R64_NW USA_POCI USA_ROCI USA_RMW USA_EYE TOKYO_LAT TOKYO_LON TOKYO_GRADE TOKYO_WIND TOKYO_PRES TOKYO_R50_DIR TOKYO_R50_LONG TOKYO_R50_SHORT TOKYO_R30_DIR TOKYO_R30_LONG TOKYO_R30_SHORT TOKYO_LAND CMA_LAT CMA_LON CMA_CAT CMA_WIND CMA_PRES HKO_LAT HKO_LON HKO_CAT HKO_WIND HKO_PRES NEWDELHI_LAT NEWDELHI_LON NEWDELHI_GRADE NEWDELHI_WIND NEWDELHI_PRES NEWDELHI_CI NEWDELHI_DP NEWDELHI_POCI REUNION_LAT REUNION_LON REUNION_TYPE REUNION_WIND REUNION_PRES REUNION_TNUM REUNION_CI REUNION_RMW REUNION_R34_NE REUNION_R34_SE REUNION_R34_SW REUNION_R34_NW REUNION_R50_NE REUNION_R50_SE REUNION_R50_SW REUNION_R50_NW REUNION_R64_NE REUNION_R64_SE REUNION_R64_SW REUNION_R64_NW BOM_LAT BOM_LON BOM_TYPE BOM_WIND BOM_PRES BOM_TNUM BOM_CI BOM_RMW BOM_R34_NE BOM_R34_SE BOM_R34_SW BOM_R34_NW BOM_R50_NE BOM_R50_SE BOM_R50_SW BOM_R50_NW BOM_R64_NE BOM_R64_SE BOM_R64_SW BOM_R64_NW BOM_ROCI BOM_POCI BOM_EYE BOM_POS_METHOD BOM_PRES_METHOD NADI_LAT NADI_LON NADI_CAT NADI_WIND NADI_PRES WELLINGTON_LAT WELLINGTON_LON WELLINGTON_WIND WELLINGTON_PRES DS824_LAT DS824_LON DS824_STAGE DS824_WIND DS824_PRES TD9636_LAT TD9636_LON TD9636_STAGE TD9636_WIND TD9636_PRES TD9635_LAT TD9635_LON TD9635_WIND TD9635_PRES TD9635_ROCI NEUMANN_LAT NEUMANN_LON NEUMANN_CLASS NEUMANN_WIND NEUMANN_PRES MLC_LAT MLC_LON MLC_CLASS MLC_WIND MLC_PRES USA_GUST BOM_GUST BOM_GUST_PER REUNION_GUST REUNION_GUST_PER USA_SEAHGT USA_SEARAD_NE USA_SEARAD_SE USA_SEARAD_SW USA_SEARAD_NW STORM_SPEED STORM_DIR
1909070S14060 1909 15 SI MM NOT_NAMED 1909-03-11 06:00:00 NR -13.8500 59.7500 reunion spur-split 739 725 _____O________ -1 -13.9000 59.9000 99 9.90000 2 222
1909070S14060 1909 15 SI MM NOT_NAMED 1909-03-11 09:00:00 NR -13.9087 59.6872 spur-split 725 711 _____P________ -1 -13.9697 59.9000 99 2 226
1909070S14060 1909 15 SI MM NOT_NAMED 1909-03-11 12:00:00 NR -13.9694 59.6227 spur-split 711 711 _____P________ -1 -14.0422 59.9000 99 2 226
1909070S14060 1909 15 SI MM NOT_NAMED 1909-03-11 15:00:00 NR -14.0345 59.5546 spur-split 711 698 _____P________ -1 -14.1205 59.9000 99 2 225
1909070S14060 1909 15 SI MM NOT_NAMED 1909-03-11 18:00:00 NR -14.1061 59.4813 spur-split 698 684 _____P________ -1 -14.2075 59.9000 99 2 225
1909070S14060 1909 15 SI MM NOT_NAMED 1909-03-11 21:00:00 NR -14.1863 59.4009 spur-split 684 670 _____P________ -1 -14.3061 59.9000 99 2 224
1909070S14060 1909 15 SI MM NOT_NAMED 1909-03-12 00:00:00 NR -14.2772 59.3118 spur-split 670 657 _____P________ -1 -14.4191 59.9000 99 3 223
1909070S14060 1909 15 SI MM NOT_NAMED 1909-03-12 03:00:00 NR -14.3811 59.2121 spur-split 657 644 _____P________ -1 -14.5494 59.9000 99 3 223
1909070S14060 1909 15 SI MM NOT_NAMED 1909-03-12 06:00:00 NR -14.5000 59.1000 reunion spur-split 644 630 _____O________ -1 -14.7000 59.9000 99 9.90000 3 222
1909070S14060 1909 15 SI MM NOT_NAMED 1909-03-12 09:00:00 NR -14.6354 58.9744 spur-split 630 604 _____P________ -1 -14.8726 59.9000 99 4 222
1909070S14060 1909 15 SI MM NOT_NAMED 1909-03-12 12:00:00 NR -14.7861 58.8365 spur-split 604 582 _____P________ -1 -15.0644 59.9000 99 4 197
1909070S14060 1909 15 SI MM NOT_NAMED 1909-03-12 15:00:00 NR -14.9959 58.8612 spur-split 584 562 _____P________ -1 -15.2715 59.9000 99 5 162
1909070S14060 1909 15 SI MM NOT_NAMED 1909-03-12 18:00:00 NR -15.2468 58.9872 spur-split 565 538 _____P________ -1 -15.4900 59.9000 99 7 144
1909070S14060 1909 15 SI MM NOT_NAMED 1909-03-12 21:00:00 NR -15.5535 59.2867 spur-split 531 519 _____P________ -1 -15.7161 59.9000 99 11 128
1909070S14060 1909 15 SI MM NOT_NAMED 1909-03-13 00:00:00 NR -15.9457 59.9000 spur-split 524 494 _____P________ -1 -15.9457 59.9000 99 9 136
1909070S14060 1909 15 SI MM NOT_NAMED 1909-03-13 03:00:00 NR -16.1749 59.9000 spur-split 494 474 _____P________ -1 -16.1749 59.9000 99 5 178
1909070S14060 1909 15 SI MM NOT_NAMED 1909-03-13 06:00:00 NR -16.4000 59.9000 reunion spur-split 474 455 _____O________ -1 -16.4000 59.9000 99 9.90000 4 0
1909070S14060 1909 15 SI MM NOT_NAMED 1909-03-13 09:00:00 NR -16.6104 59.8943 spur-split 455 436 _____P________ -1 -16.6104 59.8943 99 4 0
1909070S14060 1909 15 SI MM NOT_NAMED 1909-03-13 12:00:00 NR -16.8193 59.8880 spur-split 436 417 _____P________ -1 -16.8193 59.8880 99 4 0
1909070S14060 1909 15 SI MM NOT_NAMED 1909-03-13 15:00:00 NR -17.0261 59.8821 spur-split 417 398 _____P________ -1 -17.0261 59.8821 99 4 183
1909070S14060 1909 15 SI MM NOT_NAMED 1909-03-13 18:00:00 NR -17.2300 59.8778 spur-split 398 380 _____P________ -1 -17.2300 59.8778 99 4 0
1909070S14060 1909 15 SI MM NOT_NAMED 1909-03-13 21:00:00 NR -17.4300 59.8762 spur-split 380 363 _____P________ -1 -17.4300 59.8762 99 4 180
1909070S14060 1909 15 SI MM NOT_NAMED 1909-03-14 00:00:00 NR -17.6256 59.8787 spur-split 363 346 _____P________ -1 -17.6256 59.8787 99 4 0
1909070S14060 1909 15 SI MM NOT_NAMED 1909-03-14 03:00:00 NR -17.8158 59.8862 spur-split 346 329 _____P________ -1 -17.8158 59.8862 99 4 176
1909070S14060 1909 15 SI MM NOT_NAMED 1909-03-14 06:00:00 NR -18.0000 59.9000 reunion spur-split 329 313 _____O________ -1 -18.0000 59.9000 99 9.90000 4 179
1909070S14060 1909 15 SI MM NOT_NAMED 1909-03-14 09:00:00 NR -18.1630 59.9104 spur-split 313 306 _____P________ -1 -18.1630 59.9104 99 3 176
1909070S14060 1909 15 SI MM NOT_NAMED 1909-03-14 12:00:00 NR -18.3180 59.9255 spur-split 306 292 _____P________ -1 -18.3180 59.9255 99 3 172
1909070S14060 1909 15 SI MM NOT_NAMED 1909-03-14 15:00:00 NR -18.4690 59.9469 spur-split 292 292 _____P________ -1 -18.4690 59.9469 99 3 173
1909070S14060 1909 15 SI MM NOT_NAMED 1909-03-14 18:00:00 NR -18.6198 59.9759 spur-split 293 281 _____P________ -1 -18.6198 59.9759 99 3 167
1909070S14060 1909 15 SI MM NOT_NAMED 1909-03-14 21:00:00 NR -18.7744 60.0142 spur-split 281 275 _____P________ -1 -18.7744 60.0142 99 3 166
1909070S14060 1909 15 SI MM NOT_NAMED 1909-03-15 00:00:00 NR -18.9367 60.0633 spur-split 285 275 _____P________ -1 -18.9367 60.0633 99 4 163
1909070S14060 1909 15 SI MM NOT_NAMED 1909-03-15 03:00:00 NR -19.1106 60.1247 spur-split 275 270 _____P________ -1 -19.1106 60.1247 99 4 160
1909070S14060 1909 15 SI MM NOT_NAMED 1909-03-15 06:00:00 NR -19.3000 60.2000 reunion spur-split 274 270 _____O________ -1 -19.3000 60.2000 99 9.90000 5 159
1909070S14060 1909 15 SI MM NOT_NAMED 1909-03-15 09:00:00 NR -19.5425 60.2975 spur-split 276 269 _____P________ -1 -19.5425 60.2975 99 5 159
1909070S14060 1909 15 SI MM NOT_NAMED 1909-03-15 12:00:00 NR -19.8027 60.4106 spur-split 277 275 _____P________ -1 -19.8027 60.4106 99 6 157
1909070S14060 1909 15 SI MM NOT_NAMED 1909-03-15 15:00:00 NR -20.0730 60.5354 spur-split 282 282 _____P________ -1 -20.0730 60.5354 99 6 156
1909070S14060 1909 15 SI MM NOT_NAMED 1909-03-15 18:00:00 NR -20.3454 60.6682 spur-split 302 302 _____P________ -1 -20.3454 60.6682 99 6 155
1909070S14060 1909 15 SI MM NOT_NAMED 1909-03-15 21:00:00 NR -20.6121 60.8050 spur-split 314 314 _____P________ -1 -20.6121 60.8050 99 6 154
1909070S14060 1909 15 SI MM NOT_NAMED 1909-03-16 00:00:00 NR -20.8653 60.9418 spur-split 329 329 _____P________ -1 -20.8653 60.9418 99 5 153
1909070S14060 1909 15 SI MM NOT_NAMED 1909-03-16 03:00:00 NR -21.0972 61.0749 spur-split 354 354 _____P________ -1 -21.0972 61.0749 99 5 151
1909070S14060 1909 15 SI MM NOT_NAMED 1909-03-16 06:00:00 NR -21.3000 61.2000 reunion spur-split 370 370 _____O________ -1 -21.3000 61.2000 99 9.90000 4 151
1909070S14060 1909 15 SI MM NOT_NAMED 1909-03-16 09:00:00 NR -21.4264 61.2740 spur-split 383 383 _____P________ -1 -21.4264 61.2740 99 3 149
1909070S14060 1909 15 SI MM NOT_NAMED 1909-03-16 12:00:00 NR -21.5228 61.3380 spur-split 387 387 _____P________ -1 -21.5228 61.3380 99 2 145
1909070S14060 1909 15 SI MM NOT_NAMED 1909-03-16 15:00:00 NR -21.5987 61.3989 spur-split 401 401 _____P________ -1 -21.5987 61.3989 99 2 139
1909070S14060 1909 15 SI MM NOT_NAMED 1909-03-16 18:00:00 NR -21.6635 61.4636 spur-split 414 414 _____P________ -1 -21.6635 61.4636 99 2 135
1909070S14060 1909 15 SI MM NOT_NAMED 1909-03-16 21:00:00 NR -21.7266 61.5391 spur-split 414 414 _____P________ -1 -21.7266 61.5391 99 2 131
1909070S14060 1909 15 SI MM NOT_NAMED 1909-03-17 00:00:00 NR -21.7975 61.6322 spur-split 428 428 _____P________ -1 -21.7975 61.6322 99 3 129
1909070S14060 1909 15 SI MM NOT_NAMED 1909-03-17 03:00:00 NR -21.8855 61.7502 spur-split 451 451 _____P________ -1 -21.8855 61.7502 99 3 129
1909070S14060 1909 15 SI MM NOT_NAMED 1909-03-17 06:00:00 NR -22.0000 61.9000 reunion spur-split 465 465 _____O________ -1 -22.0000 61.9000 99 9.90000 5 132
1909070S14060 1909 15 SI MM NOT_NAMED 1909-03-17 09:00:00 NR -22.1978 62.1283 spur-split 493 493 _____P________ -1 -22.1978 62.1283 99 6 133
1909070S14060 1909 15 SI MM NOT_NAMED 1909-03-17 12:00:00 NR -22.4215 62.3914 spur-split 530 530 _____P________ -1 -22.4215 62.3914 99 7 132
1909070S14060 1909 15 SI MM NOT_NAMED 1909-03-17 15:00:00 NR -22.6620 62.6789 spur-split 572 572 _____P________ -1 -22.6620 62.6789 99 7 132
1909070S14060 1909 15 SI MM NOT_NAMED 1909-03-17 18:00:00 NR -22.9102 62.9799 spur-split 609 609 _____P________ -1 -22.9102 62.9799 99 7 132
1909070S14060 1909 15 SI MM NOT_NAMED 1909-03-17 21:00:00 NR -23.1570 63.2836 spur-split 651 651 _____P________ -1 -23.1570 63.2836 99 7 131
1909070S14060 1909 15 SI MM NOT_NAMED 1909-03-18 00:00:00 NR -23.3935 63.5790 spur-split 689 689 _____P________ -1 -23.3935 63.5790 99 7 131
1909070S14060 1909 15 SI MM NOT_NAMED 1909-03-18 03:00:00 NR -23.6107 63.8549 spur-split 726 726 _____P________ -1 -23.6107 63.8549 99 6 130
1909070S14060 1909 15 SI MM NOT_NAMED 1909-03-18 06:00:00 NR -23.8000 64.1000 reunion spur-split 755 755 _____O________ -1 -23.8000 64.1000 99 9.90000 5 130
1909070S14060 1909 15 SI MM NOT_NAMED 1909-03-18 09:00:00 NR -23.9548 64.3057 spur-split 783 783 _____P________ -1 -23.9548 64.3057 99 4 129
1909070S14060 1909 15 SI MM NOT_NAMED 1909-03-18 12:00:00 NR -24.0775 64.4743 spur-split 806 806 _____P________ -1 -24.0775 64.4743 99 4 128
1909070S14060 1909 15 SI MM NOT_NAMED 1909-03-18 15:00:00 NR -24.1729 64.6109 spur-split 820 820 _____P________ -1 -24.1729 64.6109 99 3 127
1909070S14060 1909 15 SI MM NOT_NAMED 1909-03-18 18:00:00 NR -24.2455 64.7209 spur-split 829 829 _____P________ -1 -24.2455 64.7209 99 2 125
1909070S14060 1909 15 SI MM NOT_NAMED 1909-03-18 21:00:00 NR -24.3000 64.8094 spur-split 844 844 _____P________ -1 -24.3000 64.8094 99 2 123
1909070S14060 1909 15 SI MM NOT_NAMED 1909-03-19 00:00:00 NR -24.3409 64.8819 spur-split 852 852 _____P________ -1 -24.3409 64.8819 99 1 121
1909070S14060 1909 15 SI MM NOT_NAMED 1909-03-19 03:00:00 NR -24.3727 64.9436 spur-split 858 858 _____P________ -1 -24.3727 64.9436 99 1 120
1909070S14060 1909 15 SI MM NOT_NAMED 1909-03-19 06:00:00 NR -24.4000 65.0000 reunion spur-split 867 _____O________ -1 -24.4000 65.0000 99 9.90000 1 119

About IBTrACS Database

This database is a web-friendly format of International Best Track Archive for Climate Stewardship (IBTrACS), a global best track data archive curated by NOAA dating back to 1842.

Updated: 2021-10-21